createdAt,value
2023-03-15T00:02:10.776Z,3.50
2023-03-15T00:04:42.804Z,3.48
2023-03-15T00:07:11.342Z,3.47
2023-03-15T00:09:44.648Z,3.37
2023-03-15T00:12:15.180Z,3.37
2023-03-15T00:14:43.916Z,3.42
2023-03-15T00:17:15.410Z,3.49
2023-03-15T00:19:43.973Z,3.55
2023-03-15T00:22:17.081Z,3.61
2023-03-15T00:24:45.552Z,3.66
2023-03-15T00:27:16.993Z,3.69
2023-03-15T00:29:45.748Z,3.70
2023-03-15T00:32:17.228Z,3.71
2023-03-15T00:34:48.673Z,3.71
2023-03-15T00:37:19.241Z,3.69
2023-03-15T00:39:48.454Z,3.71
2023-03-15T00:42:16.983Z,3.71
2023-03-15T00:44:47.465Z,3.67
2023-03-15T00:47:17.140Z,3.68
2023-03-15T00:49:48.321Z,3.68
2023-03-15T00:52:22.003Z,3.71
2023-03-15T00:54:55.639Z,3.75
2023-03-15T00:57:34.183Z,3.74
2023-03-15T01:00:24.397Z,3.71
2023-03-15T01:02:56.577Z,3.70
2023-03-15T01:05:26.044Z,3.69
2023-03-15T01:07:56.752Z,3.70
2023-03-15T01:10:24.912Z,3.71
2023-03-15T01:12:55.812Z,3.69
2023-03-15T01:15:24.155Z,3.68
2023-03-15T01:17:56.463Z,3.69
2023-03-15T01:20:26.605Z,3.67
2023-03-15T01:22:54.691Z,3.65
2023-03-15T01:25:25.946Z,3.61
2023-03-15T01:27:54.464Z,3.60
2023-03-15T01:30:29.747Z,3.60
2023-03-15T01:32:58.235Z,3.59
2023-03-15T01:35:28.445Z,3.57
2023-03-15T01:37:58.792Z,3.56
2023-03-15T01:40:27.752Z,3.56
2023-03-15T01:43:06.022Z,3.55
2023-03-15T01:46:01.767Z,3.55
2023-03-15T01:48:45.212Z,3.53
2023-03-15T01:51:44.900Z,3.47
2023-03-15T01:54:15.612Z,3.42
2023-03-15T01:57:00.209Z,3.39
2023-03-15T01:59:48.983Z,3.33
2023-03-15T02:02:18.947Z,3.31
2023-03-15T02:05:09.388Z,3.27
2023-03-15T02:07:49.410Z,3.28
2023-03-15T02:10:30.329Z,3.28
2023-03-15T02:13:05.514Z,3.30
2023-03-15T02:15:36.761Z,3.33
2023-03-15T02:18:06.851Z,3.35
2023-03-15T02:21:34.031Z,3.36
2023-03-15T02:24:56.444Z,3.30
2023-03-15T02:27:35.064Z,3.27
2023-03-15T02:30:07.709Z,3.26
2023-03-15T02:32:36.247Z,3.25
2023-03-15T02:35:05.418Z,3.24
2023-03-15T02:37:34.125Z,3.23
2023-03-15T02:40:04.348Z,3.23
2023-03-15T02:42:32.739Z,3.22
2023-03-15T02:45:01.630Z,3.24
2023-03-15T02:47:33.554Z,3.24
2023-03-15T02:50:07.832Z,3.22
2023-03-15T02:52:38.743Z,3.20
2023-03-15T02:55:09.954Z,3.19
2023-03-15T02:57:38.249Z,3.18
2023-03-15T03:00:14.115Z,3.17
2023-03-15T03:02:53.994Z,3.14
2023-03-15T03:05:22.956Z,3.13
2023-03-15T03:07:51.040Z,3.14
2023-03-15T03:10:24.530Z,3.14
2023-03-15T03:12:56.093Z,3.12
2023-03-15T03:15:34.532Z,3.12
2023-03-15T03:18:03.857Z,3.11
2023-03-15T03:20:34.691Z,3.10
2023-03-15T03:23:05.980Z,3.09
2023-03-15T03:25:36.191Z,3.08
2023-03-15T03:28:04.388Z,3.06
2023-03-15T03:30:36.014Z,3.06
2023-03-15T03:33:06.695Z,3.06
2023-03-15T03:35:34.574Z,3.06
2023-03-15T03:38:02.329Z,3.08
2023-03-15T03:40:34.874Z,3.10
2023-03-15T03:43:07.165Z,3.04
2023-03-15T03:45:35.876Z,2.99
2023-03-15T03:48:04.782Z,2.95
2023-03-15T03:50:34.256Z,2.95
2023-03-15T03:53:03.463Z,2.95
2023-03-15T03:55:45.963Z,2.95
2023-03-15T03:58:17.409Z,2.93
2023-03-15T04:00:57.592Z,2.88
2023-03-15T04:03:28.092Z,2.85
2023-03-15T04:06:07.725Z,2.81
2023-03-15T04:08:41.172Z,2.80
2023-03-15T04:11:14.278Z,2.79
2023-03-15T04:13:45.074Z,2.78
2023-03-15T04:16:16.385Z,2.76
2023-03-15T04:19:05.363Z,2.73
2023-03-15T04:21:37.614Z,2.70
2023-03-15T04:24:26.123Z,2.68
2023-03-15T04:27:14.055Z,2.67
2023-03-15T04:29:57.951Z,2.65
2023-03-15T04:32:44.741Z,2.62
2023-03-15T04:35:30.817Z,2.58
2023-03-15T04:38:26.347Z,2.53
2023-03-15T04:41:18.283Z,2.49
2023-03-15T04:44:05.708Z,2.45
2023-03-15T04:46:40.364Z,2.43
2023-03-15T04:49:16.668Z,2.41
2023-03-15T04:51:57.330Z,2.38
2023-03-15T04:55:01.356Z,2.35
2023-03-15T04:57:56.182Z,2.32
2023-03-15T05:00:43.001Z,2.26
2023-03-15T05:03:27.560Z,2.25
2023-03-15T05:06:28.894Z,2.25
2023-03-15T05:09:19.093Z,2.24
2023-03-15T05:12:13.327Z,2.24
2023-03-15T05:15:01.673Z,2.23
2023-03-15T05:17:45.958Z,2.22
2023-03-15T05:20:42.956Z,2.21
2023-03-15T05:23:33.159Z,2.21
2023-03-15T05:26:14.063Z,2.19
2023-03-15T05:29:05.324Z,2.18
2023-03-15T05:31:53.580Z,2.18
2023-03-15T05:34:44.887Z,2.19
2023-03-15T05:37:33.608Z,2.21
2023-03-15T05:40:45.994Z,2.25
2023-03-15T05:43:35.268Z,2.28
2023-03-15T05:46:31.512Z,2.34
2023-03-15T05:49:10.790Z,2.38
2023-03-15T05:51:57.871Z,2.42
2023-03-15T05:54:36.645Z,2.49
2023-03-15T05:57:24.408Z,2.55
2023-03-15T06:00:16.712Z,2.60
2023-03-15T06:02:48.103Z,2.65
2023-03-15T06:05:29.598Z,2.71
2023-03-15T06:07:58.862Z,2.74
2023-03-15T06:10:31.777Z,2.78
2023-03-15T06:13:01.629Z,2.83
2023-03-15T06:15:30.458Z,2.90
2023-03-15T06:18:00.552Z,2.95
2023-03-15T06:20:32.911Z,2.96
2023-03-15T06:23:07.338Z,2.97
2023-03-15T06:25:42.084Z,3.00
2023-03-15T06:28:11.147Z,3.04
2023-03-15T06:30:42.797Z,3.09
2023-03-15T06:33:11.975Z,3.17
2023-03-15T06:35:40.784Z,3.24
2023-03-15T06:38:12.630Z,3.31
2023-03-15T06:40:42.485Z,3.44
2023-03-15T06:43:18.289Z,3.56
2023-03-15T06:45:53.162Z,3.64
2023-03-15T06:48:22.389Z,3.71
2023-03-15T06:51:05.679Z,3.80
2023-03-15T06:53:40.605Z,3.93
2023-03-15T06:56:11.930Z,4.11
2023-03-15T06:58:40.548Z,4.18
2023-03-15T07:01:13.829Z,4.26
2023-03-15T07:03:46.143Z,4.34
2023-03-15T07:06:15.246Z,4.39
2023-03-15T07:08:48.611Z,4.40
2023-03-15T07:11:17.019Z,4.38
2023-03-15T07:14:12.255Z,4.36
2023-03-15T07:16:40.768Z,4.32
2023-03-15T07:19:09.323Z,4.30
2023-03-15T07:21:45.264Z,4.38
2023-03-15T07:24:15.780Z,4.55
2023-03-15T07:26:44.458Z,4.75
2023-03-15T07:29:12.713Z,4.95
2023-03-15T07:32:01.897Z,5.23
2023-03-15T07:34:37.132Z,5.51
2023-03-15T07:37:05.938Z,5.68
2023-03-15T07:39:40.494Z,5.87
2023-03-15T07:42:11.581Z,6.04
2023-03-15T07:44:42.664Z,6.17
2023-03-15T07:47:14.456Z,6.20
2023-03-15T07:49:50.444Z,6.20
2023-03-15T07:52:20.961Z,6.27
2023-03-15T07:54:49.621Z,6.39
2023-03-15T07:57:18.514Z,6.45
2023-03-15T07:59:52.260Z,6.55
2023-03-15T08:02:30.688Z,6.57
2023-03-15T08:04:59.611Z,6.49
2023-03-15T08:07:31.584Z,6.42
2023-03-15T08:10:10.918Z,6.37
2023-03-15T08:12:51.557Z,6.32
2023-03-15T08:15:32.636Z,6.26
2023-03-15T08:18:08.756Z,6.19
2023-03-15T08:20:49.024Z,6.14
2023-03-15T08:23:21.511Z,6.10
2023-03-15T08:25:51.330Z,6.04
2023-03-15T08:28:20.287Z,6.11
2023-03-15T08:30:48.740Z,6.25
2023-03-15T08:33:24.530Z,6.33
2023-03-15T08:36:00.843Z,6.40
2023-03-15T08:38:48.494Z,6.53
2023-03-15T08:41:20.023Z,6.59
2023-03-15T08:43:52.808Z,6.59
2023-03-15T08:46:27.531Z,6.57
2023-03-15T08:48:55.897Z,6.36
2023-03-15T08:51:26.014Z,6.20
2023-03-15T08:53:54.350Z,6.20
2023-03-15T08:56:23.077Z,6.33
2023-03-15T08:58:51.278Z,6.40
2023-03-15T09:01:21.003Z,6.44
2023-03-15T09:03:50.409Z,6.40
2023-03-15T09:06:18.609Z,6.35
2023-03-15T09:08:53.479Z,6.33
2023-03-15T09:11:25.118Z,6.28
2023-03-15T09:13:56.683Z,6.21
2023-03-15T09:16:24.817Z,6.08
2023-03-15T09:18:55.307Z,6.02
2023-03-15T09:21:27.400Z,5.99
2023-03-15T09:24:01.080Z,5.93
2023-03-15T09:26:40.004Z,5.90
2023-03-15T09:29:16.588Z,5.78
2023-03-15T09:31:49.265Z,5.71
2023-03-15T09:34:21.966Z,5.79
2023-03-15T09:36:54.770Z,5.89
2023-03-15T09:39:25.220Z,5.96
2023-03-15T09:41:58.359Z,6.06
2023-03-15T09:44:51.991Z,6.18
2023-03-15T09:47:36.805Z,6.16
2023-03-15T09:50:23.851Z,6.30
2023-03-15T09:52:59.881Z,6.41
2023-03-15T09:55:35.681Z,6.54
2023-03-15T09:58:16.046Z,6.70
2023-03-15T10:00:53.495Z,6.77
2023-03-15T10:03:56.488Z,6.87
2023-03-15T10:06:36.405Z,7.07
2023-03-15T10:09:46.102Z,7.17
2023-03-15T10:13:21.375Z,7.06
2023-03-15T10:16:33.673Z,6.98
2023-03-15T10:19:50.035Z,6.99
2023-03-15T10:22:48.763Z,6.97
2023-03-15T10:25:34.986Z,7.04
2023-03-15T10:29:00.450Z,7.09
2023-03-15T10:32:17.638Z,7.26
2023-03-15T10:35:21.628Z,7.38
2023-03-15T10:38:05.286Z,7.45
2023-03-15T10:40:55.792Z,7.65
2023-03-15T10:43:35.261Z,7.91
2023-03-15T10:46:27.107Z,8.11
2023-03-15T10:49:25.840Z,8.41
2023-03-15T10:52:08.833Z,8.83
2023-03-15T10:55:37.839Z,9.03
2023-03-15T10:59:11.525Z,8.95
2023-03-15T11:01:56.518Z,8.81
2023-03-15T11:04:33.787Z,8.77
2023-03-15T11:07:16.095Z,8.77
2023-03-15T11:10:19.033Z,8.68
2023-03-15T11:13:45.410Z,8.66
2023-03-15T11:16:40.197Z,8.64
2023-03-15T11:20:15.207Z,8.54
2023-03-15T11:24:30.173Z,8.30
2023-03-15T11:28:10.927Z,8.12
2023-03-15T11:31:32.150Z,8.08
2023-03-15T11:34:56.735Z,8.03
2023-03-15T11:38:15.315Z,7.97
2023-03-15T11:41:59.319Z,7.83
2023-03-15T11:45:30.450Z,7.74
2023-03-15T11:49:02.901Z,7.69
2023-03-15T11:52:14.067Z,7.61
2023-03-15T11:56:20.572Z,7.56
2023-03-15T12:03:36.646Z,7.61
2023-03-15T12:24:19.131Z,7.01
2023-03-15T12:27:33.671Z,7.09
2023-03-15T12:35:14.548Z,6.89
2023-03-15T12:38:23.675Z,6.89
2023-03-15T12:41:53.967Z,6.89
2023-03-15T12:44:40.126Z,6.91
2023-03-15T12:48:09.604Z,6.83
2023-03-15T12:50:48.032Z,6.70
2023-03-15T12:53:31.887Z,6.65
2023-03-15T12:56:42.836Z,6.66
2023-03-15T12:59:35.341Z,6.63
2023-03-15T13:02:44.538Z,6.62
2023-03-15T13:06:01.330Z,6.68
2023-03-15T13:09:18.188Z,6.70
2023-03-15T13:12:15.850Z,6.69
2023-03-15T13:14:58.169Z,6.65
2023-03-15T13:17:59.782Z,6.63
2023-03-15T13:21:12.057Z,6.66
2023-03-15T13:23:48.958Z,6.70
2023-03-15T13:27:09.274Z,6.75
2023-03-15T13:29:42.737Z,6.80
2023-03-15T13:32:18.191Z,6.81
2023-03-15T13:34:49.462Z,6.81
2023-03-15T13:37:48.619Z,6.77
2023-03-15T13:40:58.986Z,6.68
2023-03-15T13:43:46.997Z,6.61
2023-03-15T13:46:35.819Z,6.63
2023-03-15T13:52:49.028Z,6.48
2023-03-15T13:55:53.779Z,6.38
2023-03-15T13:58:31.228Z,6.37
2023-03-15T14:01:26.865Z,6.36
2023-03-15T14:04:29.962Z,6.36
2023-03-15T14:07:34.894Z,6.49
2023-03-15T14:10:17.054Z,6.56
2023-03-15T14:12:49.331Z,6.65
2023-03-15T14:15:50.539Z,6.75
2023-03-15T14:22:44.833Z,6.65
2023-03-15T14:26:00.642Z,6.53
2023-03-15T14:54:36.584Z,6.93
2023-03-15T15:00:42.177Z,7.01
2023-03-15T15:04:05.636Z,6.82
2023-03-15T15:06:58.894Z,6.54
2023-03-15T15:09:30.860Z,6.34
2023-03-15T15:12:05.196Z,6.21
2023-03-15T15:14:50.290Z,6.09
2023-03-15T15:21:13.758Z,5.85
2023-03-15T15:24:42.796Z,5.74
2023-03-15T15:28:01.446Z,5.68
2023-03-15T15:31:13.353Z,5.63
2023-03-15T15:34:35.769Z,5.57
2023-03-15T15:37:58.958Z,5.53
2023-03-15T15:41:13.304Z,5.48
2023-03-15T15:44:20.188Z,5.43
2023-03-15T15:46:57.317Z,5.40
2023-03-15T15:49:33.658Z,5.42
2023-03-15T15:52:09.915Z,5.40
2023-03-15T15:54:46.316Z,5.41
2023-03-15T15:57:31.784Z,5.43
2023-03-15T16:00:30.855Z,5.50
2023-03-15T16:03:32.878Z,5.46
2023-03-15T16:06:10.033Z,5.40
2023-03-15T16:08:42.621Z,5.35
2023-03-15T16:11:18.225Z,5.29
2023-03-15T16:14:02.440Z,5.22
2023-03-15T16:16:54.538Z,5.17
2023-03-15T16:19:41.433Z,5.09
2023-03-15T16:22:35.228Z,5.04
2023-03-15T16:25:26.226Z,4.98
2023-03-15T16:28:11.133Z,4.92
2023-03-15T16:30:46.886Z,4.86
2023-03-15T16:33:39.430Z,4.81
2023-03-15T16:36:39.657Z,4.76
2023-03-15T16:39:21.911Z,4.68
2023-03-15T16:42:13.542Z,4.65
2023-03-15T16:44:56.672Z,4.60
2023-03-15T16:47:53.627Z,4.56
2023-03-15T16:50:51.512Z,4.52
2023-03-15T16:53:57.495Z,4.50
2023-03-15T16:56:46.588Z,4.46
2023-03-15T16:59:28.717Z,4.43
2023-03-15T17:02:03.857Z,4.41
2023-03-15T17:04:54.219Z,4.37
2023-03-15T17:08:15.869Z,4.31
2023-03-15T17:11:03.993Z,4.23
2023-03-15T17:18:36.581Z,4.10
2023-03-15T17:22:24.974Z,4.04
2023-03-15T17:25:26.059Z,3.98
2023-03-15T17:28:32.503Z,4.00
2023-03-15T17:31:46.160Z,3.98
2023-03-15T17:35:27.215Z,3.97
2023-03-15T17:38:03.331Z,3.92
2023-03-15T17:40:39.712Z,3.89
2023-03-15T17:43:15.185Z,3.87
2023-03-15T17:46:02.918Z,3.83
2023-03-15T17:48:47.071Z,3.78
2023-03-15T17:51:35.412Z,3.72
2023-03-15T17:54:27.169Z,3.68
2023-03-15T17:57:19.172Z,3.65
2023-03-15T18:00:04.607Z,3.62
2023-03-15T18:02:56.846Z,3.58
2023-03-15T18:05:31.536Z,3.56
2023-03-15T18:08:11.719Z,3.53
2023-03-15T18:11:26.691Z,3.46
2023-03-15T18:14:13.463Z,3.36
2023-03-15T18:17:08.892Z,3.27
2023-03-15T18:19:50.543Z,3.19
2023-03-15T18:26:14.848Z,3.04
2023-03-15T18:28:56.868Z,3.00
2023-03-15T18:31:53.511Z,2.92
2023-03-15T18:34:31.457Z,2.88
2023-03-15T18:37:11.478Z,2.86
2023-03-15T18:39:51.276Z,2.81
2023-03-15T18:42:36.693Z,2.76
2023-03-15T18:45:30.497Z,2.71
2023-03-15T18:48:07.789Z,2.64
2023-03-15T18:50:43.585Z,2.59
2023-03-15T18:53:18.766Z,2.54
2023-03-15T18:56:21.357Z,2.46
2023-03-15T18:59:13.817Z,2.38
2023-03-15T19:01:54.529Z,2.32
2023-03-15T19:04:23.826Z,2.33
2023-03-15T19:06:56.070Z,2.33
2023-03-15T19:09:39.775Z,2.34
2023-03-15T19:12:24.714Z,2.34
2023-03-15T19:15:00.936Z,2.34
2023-03-15T19:18:11.533Z,2.30
2023-03-15T19:21:00.166Z,2.26
2023-03-15T19:23:46.780Z,2.22
2023-03-15T19:26:22.229Z,2.20
2023-03-15T19:29:20.129Z,2.20
2023-03-15T19:32:26.730Z,2.21
2023-03-15T19:35:22.877Z,2.18
2023-03-15T19:38:10.585Z,2.15
2023-03-15T19:44:52.254Z,1.97
2023-03-15T19:47:48.085Z,1.93
2023-03-15T19:54:11.920Z,1.82
2023-03-15T19:56:42.347Z,1.79
2023-03-15T19:59:18.620Z,1.78
2023-03-15T20:02:00.850Z,1.76
2023-03-15T20:04:29.886Z,1.78
2023-03-15T20:06:59.363Z,1.79
2023-03-15T20:09:38.738Z,1.80
2023-03-15T20:12:19.235Z,1.78
2023-03-15T20:14:53.948Z,1.75
2023-03-15T20:17:25.639Z,1.72
2023-03-15T20:20:04.245Z,1.68
2023-03-15T20:22:40.528Z,1.63
2023-03-15T20:25:18.699Z,1.61
2023-03-15T20:27:55.859Z,1.56
2023-03-15T20:30:37.224Z,1.53
2023-03-15T20:33:14.995Z,1.47
2023-03-15T20:35:45.142Z,1.41
2023-03-15T20:38:14.779Z,1.37
2023-03-15T20:40:46.047Z,1.33
2023-03-15T20:43:22.577Z,1.30
2023-03-15T20:46:14.312Z,1.24
2023-03-15T20:48:44.590Z,1.16
2023-03-15T20:51:21.768Z,1.09
2023-03-15T20:53:54.310Z,1.03
2023-03-15T20:56:26.312Z,0.99
2023-03-15T20:58:58.427Z,0.96
2023-03-15T21:01:49.909Z,0.94
2023-03-15T21:06:23.968Z,0.92
2023-03-15T21:09:02.800Z,0.84
2023-03-15T21:12:37.660Z,0.83
2023-03-15T21:18:42.250Z,0.74
2023-03-15T21:21:14.478Z,0.74
2023-03-15T21:23:42.891Z,0.74
2023-03-15T21:26:16.693Z,0.75
2023-03-15T21:28:48.535Z,0.75
2023-03-15T21:31:36.443Z,0.70
2023-03-15T21:34:14.444Z,0.70
2023-03-15T21:36:45.793Z,0.68
2023-03-15T21:39:19.902Z,0.66
2023-03-15T21:41:54.693Z,0.64
2023-03-15T21:44:25.699Z,0.60
2023-03-15T21:46:57.365Z,0.55
2023-03-15T21:49:48.158Z,0.52
2023-03-15T21:52:21.524Z,0.48
2023-03-15T21:54:59.190Z,0.45
2023-03-15T21:57:36.581Z,0.43
2023-03-15T22:00:11.641Z,0.43
2023-03-15T22:02:46.599Z,0.43
2023-03-15T22:05:15.392Z,0.44
2023-03-15T22:07:52.649Z,0.44
2023-03-15T22:10:26.603Z,0.43
2023-03-15T22:13:00.629Z,0.42
2023-03-15T22:15:28.914Z,0.40
2023-03-15T22:17:57.241Z,0.39
2023-03-15T22:20:30.364Z,0.36
2023-03-15T22:23:05.106Z,0.34
2023-03-15T22:26:09.485Z,0.32
2023-03-15T22:28:55.598Z,0.29
2023-03-15T22:31:34.117Z,0.28
2023-03-15T22:34:12.203Z,0.27
2023-03-15T22:36:43.792Z,0.28
2023-03-15T22:39:15.825Z,0.28
2023-03-15T22:41:54.336Z,0.28
2023-03-15T22:44:30.462Z,0.27
2023-03-15T22:47:10.601Z,0.27
2023-03-15T22:49:48.385Z,0.27
2023-03-15T22:52:29.522Z,0.26
2023-03-15T22:55:20.883Z,0.24
2023-03-15T22:57:53.662Z,0.23
2023-03-15T23:00:32.274Z,0.22
2023-03-15T23:03:13.165Z,0.22
2023-03-15T23:05:58.852Z,0.21
2023-03-15T23:08:37.678Z,0.18
2023-03-15T23:11:24.832Z,0.17
2023-03-15T23:13:58.454Z,0.16
2023-03-15T23:16:28.830Z,0.14
2023-03-15T23:19:07.735Z,0.12
2023-03-15T23:21:42.610Z,0.11
2023-03-15T23:24:22.378Z,0.08
2023-03-15T23:27:06.947Z,0.02
2023-03-15T23:29:54.223Z,-0.02
2023-03-15T23:32:44.566Z,-0.04
2023-03-15T23:35:23.973Z,-0.06
2023-03-15T23:38:01.609Z,-0.08
2023-03-15T23:40:36.081Z,-0.08
2023-03-15T23:43:14.608Z,-0.07
2023-03-15T23:45:58.797Z,-0.06
2023-03-15T23:48:36.627Z,-0.05
2023-03-15T23:51:05.480Z,-0.05
2023-03-15T23:53:42.325Z,-0.04
2023-03-15T23:56:22.488Z,-0.05
2023-03-15T23:59:03.118Z,-0.07
